Time,TemperatureF,DewpointF,PressureIn,WindDirection,WindDirectionDegrees,WindSpeedMPH,WindSpeedGustMPH,Humidity,HourlyPrecipIn,Conditions,Clouds,dailyrainin,SolarRadiationWatts/m^2,SoftwareType,DateUTC
2013-03-18 00:03:00,47.0,40.0,-100.00,NE,49,12.0,22.0,77,0.00,,,0.00,0.000000,,2013-03-18 04:03:00,
2013-03-18 00:33:00,47.0,41.0,-100.00,NE,49,11.0,23.0,81,0.00,,,0.00,0.000000,,2013-03-18 04:33:00,
2013-03-18 00:42:00,47.0,41.0,-100.00,NE,49,11.0,23.0,81,0.00,,,0.00,0.000000,,2013-03-18 04:42:00,
2013-03-18 00:53:00,47.0,41.0,-100.00,NE,49,11.0,23.0,81,0.00,,,0.00,0.000000,,2013-03-18 04:53:00,
2013-03-18 01:03:00,47.0,41.0,-100.00,NE,49,11.0,23.0,81,0.00,,,0.00,0.000000,,2013-03-18 05:03:00,
2013-03-18 01:32:00,48.0,43.0,-100.00,NE,53,12.0,20.0,82,0.00,,,0.00,0.000000,,2013-03-18 05:32:00,
2013-03-18 01:43:00,48.0,43.0,-100.00,NE,53,12.0,20.0,82,0.00,,,0.00,0.000000,,2013-03-18 05:43:00,
2013-03-18 01:52:00,48.0,43.0,-100.00,NE,53,12.0,20.0,82,0.00,,,0.00,0.000000,,2013-03-18 05:52:00,
2013-03-18 02:02:00,48.0,43.0,-100.00,NE,53,12.0,20.0,82,0.00,,,0.00,0.000000,,2013-03-18 06:02:00,
2013-03-18 02:32:00,48.0,44.0,-100.00,NE,42,10.0,18.0,85,0.00,,,0.00,0.000000,,2013-03-18 06:32:00,
2013-03-18 02:42:00,48.0,44.0,-100.00,NE,42,10.0,18.0,85,0.00,,,0.00,0.000000,,2013-03-18 06:42:00,
2013-03-18 02:53:00,48.0,44.0,-100.00,NE,42,10.0,18.0,85,0.00,,,0.00,0.000000,,2013-03-18 06:53:00,
2013-03-18 03:02:00,48.0,44.0,-100.00,NE,42,10.0,18.0,85,0.00,,,0.00,0.000000,,2013-03-18 07:02:00,
2013-03-18 03:33:00,48.0,44.0,-100.00,NE,43,11.0,17.0,86,0.00,,,0.00,0.000000,,2013-03-18 07:33:00,
2013-03-18 03:43:00,48.0,44.0,-100.00,NE,43,11.0,17.0,86,0.00,,,0.00,0.000000,,2013-03-18 07:43:00,
2013-03-18 03:53:00,48.0,44.0,-100.00,NE,43,11.0,17.0,86,0.00,,,0.00,0.000000,,2013-03-18 07:53:00,
2013-03-18 04:02:00,48.0,44.0,-100.00,NE,43,11.0,17.0,86,0.00,,,0.00,0.000000,,2013-03-18 08:02:00,
2013-03-18 04:32:00,48.0,44.0,-100.00,NE,35,11.0,18.0,87,0.00,,,0.00,0.000000,,2013-03-18 08:32:00,
2013-03-18 04:43:00,48.0,44.0,-100.00,NE,35,11.0,18.0,87,0.00,,,0.00,0.000000,,2013-03-18 08:43:00,
2013-03-18 04:53:00,48.0,44.0,-100.00,NE,35,11.0,18.0,87,0.00,,,0.00,0.000000,,2013-03-18 08:53:00,
2013-03-18 05:02:00,48.0,44.0,-100.00,NE,35,11.0,18.0,87,0.00,,,0.00,0.000000,,2013-03-18 09:02:00,
2013-03-18 05:33:00,48.0,44.0,-100.00,NE,38,12.0,18.0,87,0.00,,,0.00,0.000000,,2013-03-18 09:33:00,
2013-03-18 05:43:00,48.0,44.0,-100.00,NE,38,12.0,18.0,87,0.00,,,0.00,0.000000,,2013-03-18 09:43:00,
2013-03-18 05:53:00,48.0,44.0,-100.00,NE,38,12.0,18.0,87,0.00,,,0.00,0.000000,,2013-03-18 09:53:00,
2013-03-18 06:04:00,48.0,44.0,-100.00,NE,38,12.0,18.0,87,0.00,,,0.00,0.000000,,2013-03-18 10:04:00,
2013-03-18 06:33:00,48.0,45.0,-100.00,NNE,32,11.0,16.0,88,0.00,,,0.00,0.000000,,2013-03-18 10:33:00,
2013-03-18 06:42:00,48.0,45.0,-100.00,NNE,32,11.0,16.0,88,0.00,,,0.00,0.000000,,2013-03-18 10:42:00,
2013-03-18 06:53:00,48.0,45.0,-100.00,NNE,32,11.0,16.0,88,0.00,,,0.00,0.000000,,2013-03-18 10:53:00,
2013-03-18 07:03:00,48.0,45.0,-100.00,NNE,32,11.0,16.0,88,0.00,,,0.00,0.000000,,2013-03-18 11:03:00,
2013-03-18 07:32:00,48.0,45.0,-100.00,NNE,33,12.0,17.0,88,0.00,,,0.00,0.000000,,2013-03-18 11:32:00,
2013-03-18 07:43:00,48.0,45.0,-100.00,NNE,33,12.0,17.0,88,0.00,,,0.00,0.000000,,2013-03-18 11:43:00,
2013-03-18 07:53:00,48.0,45.0,-100.00,NNE,33,12.0,17.0,88,0.00,,,0.00,0.000000,,2013-03-18 11:53:00,
2013-03-18 08:03:00,48.0,45.0,-100.00,NNE,33,12.0,17.0,88,0.00,,,0.00,0.000000,,2013-03-18 12:03:00,
2013-03-18 08:33:00,48.0,44.0,-100.00,NNE,26,11.0,20.0,87,0.00,,,0.00,14.000000,,2013-03-18 12:33:00,
2013-03-18 08:43:00,48.0,44.0,-100.00,NNE,26,11.0,20.0,87,0.00,,,0.00,14.000000,,2013-03-18 12:43:00,
2013-03-18 08:52:00,48.0,44.0,-100.00,NNE,26,11.0,20.0,87,0.00,,,0.00,14.000000,,2013-03-18 12:52:00,
2013-03-18 09:03:00,48.0,44.0,-100.00,NNE,26,11.0,20.0,87,0.00,,,0.00,14.000000,,2013-03-18 13:03:00,
2013-03-18 09:33:00,49.0,44.0,-100.00,NNE,17,13.0,19.0,84,0.00,,,0.00,121.000000,,2013-03-18 13:33:00,
2013-03-18 09:42:00,49.0,44.0,-100.00,NNE,17,13.0,19.0,84,0.00,,,0.00,121.000000,,2013-03-18 13:42:00,
2013-03-18 09:52:00,49.0,44.0,-100.00,NNE,17,13.0,19.0,84,0.00,,,0.00,121.000000,,2013-03-18 13:52:00,
2013-03-18 10:02:00,49.0,44.0,-100.00,NNE,17,13.0,19.0,84,0.00,,,0.00,121.000000,,2013-03-18 14:02:00,
2013-03-18 10:32:00,50.0,45.0,-100.00,NNE,20,11.0,21.0,82,0.00,,,-99.99,252.000000,,2013-03-18 14:32:00,
2013-03-18 10:42:00,50.0,45.0,-100.00,NNE,20,11.0,21.0,82,0.00,,,-99.99,252.000000,,2013-03-18 14:42:00,
2013-03-18 10:52:00,50.0,45.0,-100.00,NNE,20,11.0,21.0,82,0.00,,,-99.99,252.000000,,2013-03-18 14:52:00,
2013-03-18 11:02:00,50.0,45.0,-100.00,NNE,20,11.0,21.0,82,0.00,,,-99.99,252.000000,,2013-03-18 15:02:00,
2013-03-18 11:33:00,51.0,46.0,-100.00,NNE,23,12.0,19.0,82,0.00,,,0.00,359.000000,,2013-03-18 15:33:00,
2013-03-18 11:43:00,51.0,46.0,-100.00,NNE,23,12.0,19.0,82,0.00,,,0.00,359.000000,,2013-03-18 15:43:00,
2013-03-18 11:52:00,51.0,46.0,-100.00,NNE,23,12.0,19.0,82,0.00,,,0.00,359.000000,,2013-03-18 15:52:00,
2013-03-18 12:03:00,51.0,46.0,-100.00,NNE,23,12.0,19.0,82,0.00,,,0.00,359.000000,,2013-03-18 16:03:00,
2013-03-18 12:33:00,56.0,49.0,-100.00,NNE,21,9.0,17.0,76,0.00,,,0.00,541.000000,,2013-03-18 16:33:00,
2013-03-18 12:42:00,56.0,49.0,-100.00,NNE,21,9.0,17.0,76,0.00,,,0.00,541.000000,,2013-03-18 16:42:00,
2013-03-18 12:53:00,56.0,49.0,-100.00,NNE,21,9.0,17.0,76,0.00,,,0.00,541.000000,,2013-03-18 16:53:00,
2013-03-18 13:03:00,56.0,49.0,-100.00,NNE,21,9.0,17.0,76,0.00,,,0.00,541.000000,,2013-03-18 17:03:00,
2013-03-18 13:33:00,59.0,50.0,-100.00,North,9,8.0,14.0,72,0.00,,,0.00,872.000000,,2013-03-18 17:33:00,
2013-03-18 13:43:00,59.0,50.0,-100.00,North,9,8.0,14.0,72,0.00,,,0.00,872.000000,,2013-03-18 17:43:00,
2013-03-18 13:52:00,59.0,50.0,-100.00,North,9,8.0,14.0,72,0.00,,,0.00,872.000000,,2013-03-18 17:52:00,
2013-03-18 14:02:00,59.0,50.0,-100.00,North,9,8.0,14.0,72,0.00,,,0.00,872.000000,,2013-03-18 18:02:00,
2013-03-18 14:32:00,63.0,52.0,-100.00,NNE,23,6.0,13.0,67,0.00,,,0.00,905.000000,,2013-03-18 18:32:00,
2013-03-18 14:42:00,63.0,52.0,-100.00,NNE,23,6.0,13.0,67,0.00,,,0.00,905.000000,,2013-03-18 18:42:00,
2013-03-18 14:52:00,63.0,52.0,-100.00,NNE,23,6.0,13.0,67,0.00,,,0.00,905.000000,,2013-03-18 18:52:00,
2013-03-18 15:03:00,63.0,52.0,-100.00,NNE,23,6.0,13.0,67,0.00,,,0.00,905.000000,,2013-03-18 19:03:00,
2013-03-18 15:33:00,63.0,52.0,-100.00,NE,51,5.0,10.0,68,0.00,,,0.00,580.000000,,2013-03-18 19:33:00,
2013-03-18 15:42:00,63.0,52.0,-100.00,NE,51,5.0,10.0,68,0.00,,,0.00,580.000000,,2013-03-18 19:42:00,
2013-03-18 15:52:00,63.0,52.0,-100.00,NE,51,5.0,10.0,68,0.00,,,0.00,580.000000,,2013-03-18 19:52:00,
2013-03-18 16:03:00,63.0,52.0,-100.00,NE,51,5.0,10.0,68,0.00,,,0.00,580.000000,,2013-03-18 20:03:00,
2013-03-18 16:33:00,67.0,54.0,-100.00,East,99,4.0,9.0,63,0.00,,,0.00,681.000000,,2013-03-18 20:33:00,
2013-03-18 16:43:00,67.0,54.0,-100.00,East,99,4.0,9.0,63,0.00,,,0.00,681.000000,,2013-03-18 20:43:00,
2013-03-18 16:53:00,67.0,54.0,-100.00,East,99,4.0,9.0,63,0.00,,,0.00,681.000000,,2013-03-18 20:53:00,
2013-03-18 17:02:00,67.0,54.0,-100.00,East,99,4.0,9.0,63,0.00,,,0.00,681.000000,,2013-03-18 21:02:00,
2013-03-18 17:33:00,65.0,54.0,-100.00,SSE,167,6.0,10.0,67,0.00,,,0.00,495.000000,,2013-03-18 21:33:00,
2013-03-18 17:43:00,65.0,54.0,-100.00,SSE,167,6.0,10.0,67,0.00,,,0.00,495.000000,,2013-03-18 21:43:00,
2013-03-18 17:53:00,65.0,54.0,-100.00,SSE,167,6.0,10.0,67,0.00,,,0.00,495.000000,,2013-03-18 21:53:00,
2013-03-18 18:03:00,65.0,54.0,-100.00,SSE,167,6.0,10.0,67,0.00,,,0.00,495.000000,,2013-03-18 22:03:00,
2013-03-18 18:33:00,61.0,54.0,-100.00,SSE,149,6.0,11.0,77,0.00,,,0.00,346.000000,,2013-03-18 22:33:00,
2013-03-18 18:42:00,61.0,54.0,-100.00,SSE,149,6.0,11.0,77,0.00,,,0.00,346.000000,,2013-03-18 22:42:00,
2013-03-18 18:53:00,61.0,54.0,-100.00,SSE,149,6.0,11.0,77,0.00,,,0.00,346.000000,,2013-03-18 22:53:00,
2013-03-18 19:03:00,61.0,54.0,-100.00,SSE,149,6.0,11.0,77,0.00,,,0.00,346.000000,,2013-03-18 23:03:00,
2013-03-18 19:33:00,57.0,53.0,-100.00,South,176,3.0,9.0,87,0.00,,,0.00,110.000000,,2013-03-18 23:33:00,
2013-03-18 19:43:00,57.0,53.0,-100.00,South,176,3.0,9.0,87,0.00,,,0.00,110.000000,,2013-03-18 23:43:00,
2013-03-18 19:53:00,57.0,53.0,-100.00,South,176,3.0,9.0,87,0.00,,,0.00,110.000000,,2013-03-18 23:53:00,
2013-03-18 20:03:00,57.0,53.0,-100.00,South,176,3.0,9.0,87,0.00,,,0.00,110.000000,,2013-03-19 00:03:00,
2013-03-18 21:33:00,54.0,52.0,-100.00,West,262,0.0,5.0,93,-99.99,,,0.00,0.000000,,2013-03-19 01:33:00,
2013-03-18 21:43:00,54.0,52.0,-100.00,West,262,0.0,5.0,93,-99.99,,,0.00,0.000000,,2013-03-19 01:43:00,
2013-03-18 21:53:00,54.0,52.0,-100.00,West,262,0.0,5.0,93,-99.99,,,0.00,0.000000,,2013-03-19 01:53:00,
2013-03-18 22:03:00,54.0,52.0,-100.00,West,262,0.0,5.0,93,-99.99,,,0.00,0.000000,,2013-03-19 02:03:00,
2013-03-18 22:33:00,53.0,51.0,-100.00,NW,306,0.0,7.0,94,0.00,,,0.00,0.000000,,2013-03-19 02:33:00,
2013-03-18 22:43:00,53.0,51.0,-100.00,NW,306,0.0,7.0,94,0.00,,,0.00,0.000000,,2013-03-19 02:43:00,
2013-03-18 22:53:00,53.0,51.0,-100.00,NW,306,0.0,7.0,94,0.00,,,0.00,0.000000,,2013-03-19 02:53:00,
2013-03-18 23:02:00,53.0,51.0,-100.00,NW,306,0.0,7.0,94,0.00,,,0.00,0.000000,,2013-03-19 03:02:00,
2013-03-18 23:33:00,52.0,51.0,-100.00,NNE,31,0.0,4.0,95,0.00,,,0.00,0.000000,,2013-03-19 03:33:00,
2013-03-18 23:43:00,52.0,51.0,-100.00,NNE,31,0.0,4.0,95,0.00,,,0.00,0.000000,,2013-03-19 03:43:00,
2013-03-18 23:54:00,52.0,51.0,-100.00,NNE,31,0.0,4.0,95,0.00,,,0.00,0.000000,,2013-03-19 03:54:00,